sensor_id;sensor_type;location;lat;lon;timestamp;P1;durP1;ratioP1;P2;durP2;ratioP2
63784;SDS011;49927;48.146;11.420;2022-09-21T00:01:03;21.90;;;8.35;;
63784;SDS011;49927;48.146;11.420;2022-09-21T00:03:30;33.35;;;14.95;;
63784;SDS011;49927;48.146;11.420;2022-09-21T00:06:00;53.15;;;21.65;;
63784;SDS011;49927;48.146;11.420;2022-09-21T00:08:26;22.48;;;7.50;;
63784;SDS011;49927;48.146;11.420;2022-09-21T00:10:52;12.18;;;5.13;;
63784;SDS011;49927;48.146;11.420;2022-09-21T00:13:17;10.18;;;6.28;;
63784;SDS011;49927;48.146;11.420;2022-09-21T00:15:43;11.23;;;5.57;;
63784;SDS011;49927;48.146;11.420;2022-09-21T00:18:08;8.27;;;4.50;;
63784;SDS011;49927;48.146;11.420;2022-09-21T00:20:35;10.25;;;3.67;;
63784;SDS011;49927;48.146;11.420;2022-09-21T00:23:01;6.70;;;3.65;;
63784;SDS011;49927;48.146;11.420;2022-09-21T00:25:26;5.55;;;3.95;;
63784;SDS011;49927;48.146;11.420;2022-09-21T00:27:52;6.22;;;3.28;;
63784;SDS011;49927;48.146;11.420;2022-09-21T00:30:18;9.80;;;3.50;;
63784;SDS011;49927;48.146;11.420;2022-09-21T00:32:43;5.05;;;3.00;;
63784;SDS011;49927;48.146;11.420;2022-09-21T00:35:09;10.07;;;4.63;;
63784;SDS011;49927;48.146;11.420;2022-09-21T00:37:36;11.60;;;5.88;;
63784;SDS011;49927;48.146;11.420;2022-09-21T00:40:01;7.47;;;4.00;;
63784;SDS011;49927;48.146;11.420;2022-09-21T00:42:28;9.90;;;3.35;;
63784;SDS011;49927;48.146;11.420;2022-09-21T00:44:55;8.30;;;3.65;;
63784;SDS011;49927;48.146;11.420;2022-09-21T00:47:21;4.40;;;3.33;;
63784;SDS011;49927;48.146;11.420;2022-09-21T00:49:49;4.90;;;3.28;;
63784;SDS011;49927;48.146;11.420;2022-09-21T00:52:16;8.07;;;3.30;;
63784;SDS011;49927;48.146;11.420;2022-09-21T00:54:46;5.70;;;3.47;;
63784;SDS011;49927;48.146;11.420;2022-09-21T00:57:14;5.13;;;3.05;;
63784;SDS011;49927;48.146;11.420;2022-09-21T00:59:39;5.35;;;3.05;;
63784;SDS011;49927;48.146;11.420;2022-09-21T01:02:06;5.82;;;2.90;;
63784;SDS011;49927;48.146;11.420;2022-09-21T01:04:32;4.57;;;2.78;;
63784;SDS011;49927;48.146;11.420;2022-09-21T01:06:59;5.60;;;2.85;;
63784;SDS011;49927;48.146;11.420;2022-09-21T01:09:27;7.93;;;3.35;;
63784;SDS011;49927;48.146;11.420;2022-09-21T01:11:57;4.20;;;3.38;;
63784;SDS011;49927;48.146;11.420;2022-09-21T01:14:37;5.43;;;2.88;;
63784;SDS011;49927;48.146;11.420;2022-09-21T01:17:11;5.97;;;3.35;;
63784;SDS011;49927;48.146;11.420;2022-09-21T01:19:44;6.70;;;3.17;;
63784;SDS011;49927;48.146;11.420;2022-09-21T01:22:24;5.93;;;3.40;;
63784;SDS011;49927;48.146;11.420;2022-09-21T01:24:59;5.97;;;3.25;;
63784;SDS011;49927;48.146;11.420;2022-09-21T01:30:17;5.88;;;3.00;;
63784;SDS011;49927;48.146;11.420;2022-09-21T01:32:44;7.97;;;2.95;;
63784;SDS011;49927;48.146;11.420;2022-09-21T01:35:13;5.75;;;3.53;;
63784;SDS011;49927;48.146;11.420;2022-09-21T01:37:43;3.65;;;2.85;;
63784;SDS011;49927;48.146;11.420;2022-09-21T01:40:11;3.83;;;2.88;;
63784;SDS011;49927;48.146;11.420;2022-09-21T01:42:38;5.15;;;3.35;;
63784;SDS011;49927;48.146;11.420;2022-09-21T01:45:05;2.97;;;2.67;;
63784;SDS011;49927;48.146;11.420;2022-09-21T01:47:33;3.53;;;3.13;;
63784;SDS011;49927;48.146;11.420;2022-09-21T01:50:00;7.10;;;3.30;;
63784;SDS011;49927;48.146;11.420;2022-09-21T01:52:29;3.58;;;2.85;;
63784;SDS011;49927;48.146;11.420;2022-09-21T01:54:58;6.15;;;3.38;;
63784;SDS011;49927;48.146;11.420;2022-09-21T01:57:29;5.35;;;3.33;;
63784;SDS011;49927;48.146;11.420;2022-09-21T01:59:59;7.13;;;2.90;;
63784;SDS011;49927;48.146;11.420;2022-09-21T02:02:26;6.53;;;3.67;;
63784;SDS011;49927;48.146;11.420;2022-09-21T02:04:56;4.20;;;3.15;;
63784;SDS011;49927;48.146;11.420;2022-09-21T02:07:22;4.78;;;2.90;;
63784;SDS011;49927;48.146;11.420;2022-09-21T02:09:48;6.78;;;3.35;;
63784;SDS011;49927;48.146;11.420;2022-09-21T02:12:13;6.65;;;3.25;;
63784;SDS011;49927;48.146;11.420;2022-09-21T02:14:39;6.22;;;3.15;;
63784;SDS011;49927;48.146;11.420;2022-09-21T02:17:09;4.80;;;3.30;;
63784;SDS011;49927;48.146;11.420;2022-09-21T02:19:42;4.82;;;3.28;;
63784;SDS011;49927;48.146;11.420;2022-09-21T02:22:12;5.90;;;3.33;;
63784;SDS011;49927;48.146;11.420;2022-09-21T02:24:42;8.13;;;3.72;;
63784;SDS011;49927;48.146;11.420;2022-09-21T02:27:11;5.53;;;3.35;;
63784;SDS011;49927;48.146;11.420;2022-09-21T02:29:44;8.43;;;3.20;;
63784;SDS011;49927;48.146;11.420;2022-09-21T02:32:14;3.80;;;2.65;;
63784;SDS011;49927;48.146;11.420;2022-09-21T02:34:44;7.00;;;3.50;;
63784;SDS011;49927;48.146;11.420;2022-09-21T02:37:16;6.78;;;3.60;;
63784;SDS011;49927;48.146;11.420;2022-09-21T02:39:46;5.95;;;2.97;;
63784;SDS011;49927;48.146;11.420;2022-09-21T02:42:17;4.13;;;3.03;;
63784;SDS011;49927;48.146;11.420;2022-09-21T02:44:46;7.35;;;3.05;;
63784;SDS011;49927;48.146;11.420;2022-09-21T02:47:16;8.32;;;3.17;;
63784;SDS011;49927;48.146;11.420;2022-09-21T02:49:44;3.83;;;2.80;;
63784;SDS011;49927;48.146;11.420;2022-09-21T02:52:13;4.95;;;3.42;;
63784;SDS011;49927;48.146;11.420;2022-09-21T02:54:42;5.50;;;3.03;;
63784;SDS011;49927;48.146;11.420;2022-09-21T02:57:09;6.47;;;3.45;;
63784;SDS011;49927;48.146;11.420;2022-09-21T02:59:35;6.97;;;3.10;;
63784;SDS011;49927;48.146;11.420;2022-09-21T03:02:01;4.85;;;3.17;;
63784;SDS011;49927;48.146;11.420;2022-09-21T03:04:26;5.25;;;3.05;;
63784;SDS011;49927;48.146;11.420;2022-09-21T03:06:52;5.95;;;4.13;;
63784;SDS011;49927;48.146;11.420;2022-09-21T03:09:19;5.95;;;3.42;;
63784;SDS011;49927;48.146;11.420;2022-09-21T03:11:45;7.05;;;3.47;;
63784;SDS011;49927;48.146;11.420;2022-09-21T03:14:10;5.55;;;3.60;;
63784;SDS011;49927;48.146;11.420;2022-09-21T03:16:36;4.82;;;3.67;;
63784;SDS011;49927;48.146;11.420;2022-09-21T03:19:02;6.80;;;4.05;;
63784;SDS011;49927;48.146;11.420;2022-09-21T03:21:28;5.22;;;3.40;;
63784;SDS011;49927;48.146;11.420;2022-09-21T03:23:54;6.15;;;3.15;;
63784;SDS011;49927;48.146;11.420;2022-09-21T03:26:20;7.68;;;3.90;;
63784;SDS011;49927;48.146;11.420;2022-09-21T03:28:46;7.20;;;3.60;;
63784;SDS011;49927;48.146;11.420;2022-09-21T03:31:12;6.53;;;3.08;;
63784;SDS011;49927;48.146;11.420;2022-09-21T03:33:37;5.28;;;3.58;;
63784;SDS011;49927;48.146;11.420;2022-09-21T03:36:03;8.63;;;4.43;;
63784;SDS011;49927;48.146;11.420;2022-09-21T03:38:28;9.00;;;3.60;;
63784;SDS011;49927;48.146;11.420;2022-09-21T03:40:54;5.05;;;3.20;;
63784;SDS011;49927;48.146;11.420;2022-09-21T03:43:21;7.28;;;3.45;;
63784;SDS011;49927;48.146;11.420;2022-09-21T03:45:46;6.32;;;3.45;;
63784;SDS011;49927;48.146;11.420;2022-09-21T03:48:12;3.25;;;2.72;;
63784;SDS011;49927;48.146;11.420;2022-09-21T03:50:37;5.55;;;3.15;;
63784;SDS011;49927;48.146;11.420;2022-09-21T03:53:03;4.35;;;2.55;;
63784;SDS011;49927;48.146;11.420;2022-09-21T03:55:29;5.85;;;2.80;;
63784;SDS011;49927;48.146;11.420;2022-09-21T03:57:54;7.35;;;3.35;;
63784;SDS011;49927;48.146;11.420;2022-09-21T04:00:21;9.48;;;3.72;;
63784;SDS011;49927;48.146;11.420;2022-09-21T04:02:47;4.82;;;3.20;;
63784;SDS011;49927;48.146;11.420;2022-09-21T04:05:13;6.45;;;3.05;;
63784;SDS011;49927;48.146;11.420;2022-09-21T04:07:39;3.85;;;3.10;;
63784;SDS011;49927;48.146;11.420;2022-09-21T04:10:06;4.75;;;3.08;;
63784;SDS011;49927;48.146;11.420;2022-09-21T04:12:32;7.40;;;3.38;;
63784;SDS011;49927;48.146;11.420;2022-09-21T04:14:58;4.57;;;3.03;;
63784;SDS011;49927;48.146;11.420;2022-09-21T04:17:25;5.93;;;3.47;;
63784;SDS011;49927;48.146;11.420;2022-09-21T04:19:50;9.90;;;3.70;;
63784;SDS011;49927;48.146;11.420;2022-09-21T04:22:16;5.63;;;3.55;;
63784;SDS011;49927;48.146;11.420;2022-09-21T04:24:41;4.72;;;3.35;;
63784;SDS011;49927;48.146;11.420;2022-09-21T04:27:07;6.75;;;3.10;;
63784;SDS011;49927;48.146;11.420;2022-09-21T04:29:33;5.68;;;3.60;;
63784;SDS011;49927;48.146;11.420;2022-09-21T04:31:58;5.30;;;3.20;;
63784;SDS011;49927;48.146;11.420;2022-09-21T04:34:25;8.55;;;3.30;;
63784;SDS011;49927;48.146;11.420;2022-09-21T04:36:51;6.22;;;3.63;;
63784;SDS011;49927;48.146;11.420;2022-09-21T04:39:16;7.18;;;3.08;;
63784;SDS011;49927;48.146;11.420;2022-09-21T04:41:42;4.53;;;3.08;;
63784;SDS011;49927;48.146;11.420;2022-09-21T04:44:07;4.40;;;2.80;;
63784;SDS011;49927;48.146;11.420;2022-09-21T04:46:33;3.88;;;3.15;;
63784;SDS011;49927;48.146;11.420;2022-09-21T04:48:58;8.30;;;3.47;;
63784;SDS011;49927;48.146;11.420;2022-09-21T04:51:25;8.82;;;3.45;;
63784;SDS011;49927;48.146;11.420;2022-09-21T04:53:50;8.75;;;3.72;;
63784;SDS011;49927;48.146;11.420;2022-09-21T04:56:16;6.78;;;3.83;;
63784;SDS011;49927;48.146;11.420;2022-09-21T04:58:42;6.60;;;3.50;;
63784;SDS011;49927;48.146;11.420;2022-09-21T05:01:08;7.28;;;4.10;;
63784;SDS011;49927;48.146;11.420;2022-09-21T05:03:34;6.75;;;3.83;;
63784;SDS011;49927;48.146;11.420;2022-09-21T05:05:59;5.22;;;3.40;;
63784;SDS011;49927;48.146;11.420;2022-09-21T05:08:26;8.85;;;3.80;;
63784;SDS011;49927;48.146;11.420;2022-09-21T05:10:52;7.28;;;4.45;;
63784;SDS011;49927;48.146;11.420;2022-09-21T05:13:18;6.97;;;3.92;;
63784;SDS011;49927;48.146;11.420;2022-09-21T05:15:43;8.43;;;3.50;;
63784;SDS011;49927;48.146;11.420;2022-09-21T05:18:08;4.78;;;3.15;;
63784;SDS011;49927;48.146;11.420;2022-09-21T05:20:34;8.95;;;4.65;;
63784;SDS011;49927;48.146;11.420;2022-09-21T05:22:59;5.63;;;4.57;;
63784;SDS011;49927;48.146;11.420;2022-09-21T05:25:26;8.82;;;4.47;;
63784;SDS011;49927;48.146;11.420;2022-09-21T05:27:52;7.60;;;4.00;;
63784;SDS011;49927;48.146;11.420;2022-09-21T05:30:18;7.07;;;3.72;;
63784;SDS011;49927;48.146;11.420;2022-09-21T05:32:44;9.15;;;3.78;;
63784;SDS011;49927;48.146;11.420;2022-09-21T05:35:15;7.85;;;4.30;;
63784;SDS011;49927;48.146;11.420;2022-09-21T05:37:47;6.85;;;4.32;;
63784;SDS011;49927;48.146;11.420;2022-09-21T05:40:17;8.48;;;4.63;;
63784;SDS011;49927;48.146;11.420;2022-09-21T05:42:45;8.63;;;4.57;;
63784;SDS011;49927;48.146;11.420;2022-09-21T05:45:14;7.20;;;4.20;;
63784;SDS011;49927;48.146;11.420;2022-09-21T05:47:55;7.38;;;4.20;;
63784;SDS011;49927;48.146;11.420;2022-09-21T05:50:32;8.50;;;4.28;;
63784;SDS011;49927;48.146;11.420;2022-09-21T05:53:07;8.73;;;4.20;;
63784;SDS011;49927;48.146;11.420;2022-09-21T05:55:42;7.20;;;4.78;;
63784;SDS011;49927;48.146;11.420;2022-09-21T05:58:13;8.18;;;4.32;;
63784;SDS011;49927;48.146;11.420;2022-09-21T06:00:45;9.32;;;4.90;;
63784;SDS011;49927;48.146;11.420;2022-09-21T06:03:25;7.85;;;4.38;;
63784;SDS011;49927;48.146;11.420;2022-09-21T06:05:52;9.07;;;3.97;;
63784;SDS011;49927;48.146;11.420;2022-09-21T06:08:17;7.97;;;4.25;;
63784;SDS011;49927;48.146;11.420;2022-09-21T06:10:42;6.63;;;4.07;;
63784;SDS011;49927;48.146;11.420;2022-09-21T06:13:08;7.43;;;4.18;;
63784;SDS011;49927;48.146;11.420;2022-09-21T06:15:35;6.78;;;3.95;;
63784;SDS011;49927;48.146;11.420;2022-09-21T06:18:00;10.70;;;4.55;;
63784;SDS011;49927;48.146;11.420;2022-09-21T06:20:26;5.90;;;3.70;;
63784;SDS011;49927;48.146;11.420;2022-09-21T06:22:51;7.05;;;4.07;;
63784;SDS011;49927;48.146;11.420;2022-09-21T06:25:17;7.22;;;3.72;;
63784;SDS011;49927;48.146;11.420;2022-09-21T06:27:42;18.58;;;5.05;;
63784;SDS011;49927;48.146;11.420;2022-09-21T06:30:08;11.57;;;5.53;;
63784;SDS011;49927;48.146;11.420;2022-09-21T06:32:35;9.43;;;4.70;;
63784;SDS011;49927;48.146;11.420;2022-09-21T06:35:00;13.05;;;5.25;;
63784;SDS011;49927;48.146;11.420;2022-09-21T06:37:26;9.90;;;4.28;;
63784;SDS011;49927;48.146;11.420;2022-09-21T06:39:51;8.52;;;4.47;;
63784;SDS011;49927;48.146;11.420;2022-09-21T06:42:17;9.45;;;4.95;;
63784;SDS011;49927;48.146;11.420;2022-09-21T06:44:42;7.97;;;4.88;;
63784;SDS011;49927;48.146;11.420;2022-09-21T06:47:08;9.85;;;5.07;;
63784;SDS011;49927;48.146;11.420;2022-09-21T06:49:35;8.63;;;4.53;;
63784;SDS011;49927;48.146;11.420;2022-09-21T06:52:00;9.07;;;5.22;;
63784;SDS011;49927;48.146;11.420;2022-09-21T06:54:26;10.82;;;4.55;;
63784;SDS011;49927;48.146;11.420;2022-09-21T06:56:51;7.32;;;4.43;;
63784;SDS011;49927;48.146;11.420;2022-09-21T06:59:17;6.68;;;4.40;;
63784;SDS011;49927;48.146;11.420;2022-09-21T07:01:42;11.63;;;5.18;;
63784;SDS011;49927;48.146;11.420;2022-09-21T07:04:08;8.80;;;5.05;;
63784;SDS011;49927;48.146;11.420;2022-09-21T07:06:35;9.63;;;5.72;;
63784;SDS011;49927;48.146;11.420;2022-09-21T07:09:00;6.75;;;4.88;;
63784;SDS011;49927;48.146;11.420;2022-09-21T07:11:26;8.93;;;4.90;;
63784;SDS011;49927;48.146;11.420;2022-09-21T07:13:51;8.23;;;4.70;;
63784;SDS011;49927;48.146;11.420;2022-09-21T07:16:16;6.57;;;3.83;;
63784;SDS011;49927;48.146;11.420;2022-09-21T07:18:42;8.27;;;4.40;;
63784;SDS011;49927;48.146;11.420;2022-09-21T07:21:08;8.32;;;4.47;;
63784;SDS011;49927;48.146;11.420;2022-09-21T07:23:35;7.35;;;4.00;;
63784;SDS011;49927;48.146;11.420;2022-09-21T07:26:02;6.78;;;4.20;;
63784;SDS011;49927;48.146;11.420;2022-09-21T07:28:28;8.02;;;3.83;;
63784;SDS011;49927;48.146;11.420;2022-09-21T07:30:54;9.18;;;3.85;;
63784;SDS011;49927;48.146;11.420;2022-09-21T07:33:19;6.55;;;4.20;;
63784;SDS011;49927;48.146;11.420;2022-09-21T07:35:49;10.68;;;4.53;;
63784;SDS011;49927;48.146;11.420;2022-09-21T07:38:15;7.38;;;3.65;;
63784;SDS011;49927;48.146;11.420;2022-09-21T07:40:42;6.10;;;3.95;;
63784;SDS011;49927;48.146;11.420;2022-09-21T07:43:07;4.45;;;3.40;;
63784;SDS011;49927;48.146;11.420;2022-09-21T07:45:33;5.50;;;3.75;;
63784;SDS011;49927;48.146;11.420;2022-09-21T07:48:01;3.80;;;3.38;;
63784;SDS011;49927;48.146;11.420;2022-09-21T07:50:27;5.05;;;3.85;;
63784;SDS011;49927;48.146;11.420;2022-09-21T07:52:52;6.65;;;3.75;;
63784;SDS011;49927;48.146;11.420;2022-09-21T07:55:17;5.63;;;4.22;;
63784;SDS011;49927;48.146;11.420;2022-09-21T07:57:44;6.90;;;4.07;;
63784;SDS011;49927;48.146;11.420;2022-09-21T08:00:10;7.88;;;4.05;;
63784;SDS011;49927;48.146;11.420;2022-09-21T08:02:36;10.15;;;4.20;;
63784;SDS011;49927;48.146;11.420;2022-09-21T08:05:02;7.38;;;4.70;;
63784;SDS011;49927;48.146;11.420;2022-09-21T08:07:28;6.70;;;4.35;;
63784;SDS011;49927;48.146;11.420;2022-09-21T08:09:53;7.85;;;3.75;;
63784;SDS011;49927;48.146;11.420;2022-09-21T08:12:19;3.83;;;2.85;;
63784;SDS011;49927;48.146;11.420;2022-09-21T08:14:46;8.57;;;3.40;;
63784;SDS011;49927;48.146;11.420;2022-09-21T08:17:11;6.32;;;3.20;;
63784;SDS011;49927;48.146;11.420;2022-09-21T08:19:37;7.45;;;2.95;;
63784;SDS011;49927;48.146;11.420;2022-09-21T08:22:02;8.07;;;3.90;;
63784;SDS011;49927;48.146;11.420;2022-09-21T08:24:28;4.22;;;3.63;;
63784;SDS011;49927;48.146;11.420;2022-09-21T08:26:53;11.07;;;5.75;;
63784;SDS011;49927;48.146;11.420;2022-09-21T08:29:19;12.75;;;6.53;;
63784;SDS011;49927;48.146;11.420;2022-09-21T08:31:46;8.02;;;3.95;;
63784;SDS011;49927;48.146;11.420;2022-09-21T08:34:11;6.93;;;4.43;;
63784;SDS011;49927;48.146;11.420;2022-09-21T08:36:37;8.48;;;5.10;;
63784;SDS011;49927;48.146;11.420;2022-09-21T08:39:05;8.85;;;4.35;;
63784;SDS011;49927;48.146;11.420;2022-09-21T08:41:34;6.05;;;3.85;;
63784;SDS011;49927;48.146;11.420;2022-09-21T08:44:13;6.50;;;3.75;;
63784;SDS011;49927;48.146;11.420;2022-09-21T08:46:41;5.03;;;2.60;;
63784;SDS011;49927;48.146;11.420;2022-09-21T08:49:10;4.35;;;3.10;;
63784;SDS011;49927;48.146;11.420;2022-09-21T08:51:44;4.93;;;2.20;;
63784;SDS011;49927;48.146;11.420;2022-09-21T08:54:12;3.58;;;2.10;;
63784;SDS011;49927;48.146;11.420;2022-09-21T08:56:41;3.95;;;2.03;;
63784;SDS011;49927;48.146;11.420;2022-09-21T08:59:07;5.55;;;2.30;;
63784;SDS011;49927;48.146;11.420;2022-09-21T09:01:38;2.05;;;1.45;;
63784;SDS011;49927;48.146;11.420;2022-09-21T09:06:46;4.20;;;1.60;;
63784;SDS011;49927;48.146;11.420;2022-09-21T09:09:22;1.40;;;1.30;;
63784;SDS011;49927;48.146;11.420;2022-09-21T09:11:58;2.50;;;1.60;;
63784;SDS011;49927;48.146;11.420;2022-09-21T09:14:36;4.10;;;2.40;;
63784;SDS011;49927;48.146;11.420;2022-09-21T09:17:18;1.83;;;1.35;;
63784;SDS011;49927;48.146;11.420;2022-09-21T09:19:53;4.50;;;1.40;;
63784;SDS011;49927;48.146;11.420;2022-09-21T09:22:22;3.20;;;1.35;;
63784;SDS011;49927;48.146;11.420;2022-09-21T09:24:52;1.85;;;1.15;;
63784;SDS011;49927;48.146;11.420;2022-09-21T09:27:22;2.47;;;1.23;;
63784;SDS011;49927;48.146;11.420;2022-09-21T09:29:53;2.88;;;1.10;;
63784;SDS011;49927;48.146;11.420;2022-09-21T09:32:22;2.33;;;1.10;;
63784;SDS011;49927;48.146;11.420;2022-09-21T09:34:56;1.77;;;1.15;;
63784;SDS011;49927;48.146;11.420;2022-09-21T09:37:26;1.73;;;1.30;;
63784;SDS011;49927;48.146;11.420;2022-09-21T09:39:55;2.42;;;1.75;;
63784;SDS011;49927;48.146;11.420;2022-09-21T09:42:28;2.17;;;1.27;;
63784;SDS011;49927;48.146;11.420;2022-09-21T09:47:57;4.50;;;0.90;;
63784;SDS011;49927;48.146;11.420;2022-09-21T09:50:31;2.80;;;0.90;;
63784;SDS011;49927;48.146;11.420;2022-09-21T09:53:00;3.05;;;1.10;;
63784;SDS011;49927;48.146;11.420;2022-09-21T09:55:34;4.32;;;1.58;;
63784;SDS011;49927;48.146;11.420;2022-09-21T09:58:00;1.85;;;0.82;;
63784;SDS011;49927;48.146;11.420;2022-09-21T10:00:26;0.77;;;0.77;;
63784;SDS011;49927;48.146;11.420;2022-09-21T10:02:52;1.92;;;1.02;;
63784;SDS011;49927;48.146;11.420;2022-09-21T10:05:19;4.10;;;1.23;;
63784;SDS011;49927;48.146;11.420;2022-09-21T10:07:48;4.32;;;1.55;;
63784;SDS011;49927;48.146;11.420;2022-09-21T10:10:30;1.60;;;1.10;;
63784;SDS011;49927;48.146;11.420;2022-09-21T10:13:01;1.20;;;0.85;;
63784;SDS011;49927;48.146;11.420;2022-09-21T10:15:30;1.52;;;0.98;;
63784;SDS011;49927;48.146;11.420;2022-09-21T10:17:56;2.10;;;1.10;;
63784;SDS011;49927;48.146;11.420;2022-09-21T10:20:23;3.08;;;1.20;;
63784;SDS011;49927;48.146;11.420;2022-09-21T10:22:52;1.77;;;1.00;;
63784;SDS011;49927;48.146;11.420;2022-09-21T10:25:18;1.13;;;0.85;;
63784;SDS011;49927;48.146;11.420;2022-09-21T10:27:45;2.60;;;1.17;;
63784;SDS011;49927;48.146;11.420;2022-09-21T10:30:30;4.43;;;1.15;;
63784;SDS011;49927;48.146;11.420;2022-09-21T10:32:57;4.15;;;1.05;;
63784;SDS011;49927;48.146;11.420;2022-09-21T10:35:23;1.85;;;1.10;;
63784;SDS011;49927;48.146;11.420;2022-09-21T10:38:07;2.22;;;1.15;;
63784;SDS011;49927;48.146;11.420;2022-09-21T10:40:35;3.70;;;1.00;;
63784;SDS011;49927;48.146;11.420;2022-09-21T10:43:01;4.70;;;1.25;;
63784;SDS011;49927;48.146;11.420;2022-09-21T10:45:29;6.00;;;1.40;;
63784;SDS011;49927;48.146;11.420;2022-09-21T10:47:56;1.73;;;1.10;;
63784;SDS011;49927;48.146;11.420;2022-09-21T10:50:24;1.80;;;0.90;;
63784;SDS011;49927;48.146;11.420;2022-09-21T10:52:54;1.25;;;1.00;;
63784;SDS011;49927;48.146;11.420;2022-09-21T10:55:24;1.77;;;0.98;;
63784;SDS011;49927;48.146;11.420;2022-09-21T10:57:50;5.13;;;1.33;;
63784;SDS011;49927;48.146;11.420;2022-09-21T11:00:26;4.07;;;1.17;;
63784;SDS011;49927;48.146;11.420;2022-09-21T11:02:54;2.40;;;1.27;;
63784;SDS011;49927;48.146;11.420;2022-09-21T11:05:21;3.17;;;0.80;;
63784;SDS011;49927;48.146;11.420;2022-09-21T11:07:48;0.95;;;0.60;;
63784;SDS011;49927;48.146;11.420;2022-09-21T11:10:18;1.88;;;0.95;;
63784;SDS011;49927;48.146;11.420;2022-09-21T11:12:50;3.92;;;1.10;;
63784;SDS011;49927;48.146;11.420;2022-09-21T11:15:22;1.45;;;0.70;;
63784;SDS011;49927;48.146;11.420;2022-09-21T11:17:55;3.33;;;1.02;;
63784;SDS011;49927;48.146;11.420;2022-09-21T11:20:26;6.03;;;1.50;;
63784;SDS011;49927;48.146;11.420;2022-09-21T11:22:58;1.08;;;0.85;;
63784;SDS011;49927;48.146;11.420;2022-09-21T11:25:30;3.85;;;1.20;;
63784;SDS011;49927;48.146;11.420;2022-09-21T11:28:01;3.03;;;0.73;;
63784;SDS011;49927;48.146;11.420;2022-09-21T11:30:31;2.47;;;1.52;;
63784;SDS011;49927;48.146;11.420;2022-09-21T11:33:09;1.63;;;0.90;;
63784;SDS011;49927;48.146;11.420;2022-09-21T11:35:45;3.13;;;1.17;;
63784;SDS011;49927;48.146;11.420;2022-09-21T11:38:17;2.30;;;1.10;;
63784;SDS011;49927;48.146;11.420;2022-09-21T11:40:52;2.67;;;1.30;;
63784;SDS011;49927;48.146;11.420;2022-09-21T11:43:30;1.50;;;0.93;;
63784;SDS011;49927;48.146;11.420;2022-09-21T11:46:06;4.05;;;1.45;;
63784;SDS011;49927;48.146;11.420;2022-09-21T11:48:43;1.53;;;0.90;;
63784;SDS011;49927;48.146;11.420;2022-09-21T11:51:26;6.20;;;1.02;;
63784;SDS011;49927;48.146;11.420;2022-09-21T11:54:05;4.90;;;1.08;;
63784;SDS011;49927;48.146;11.420;2022-09-21T11:56:42;2.53;;;0.70;;
63784;SDS011;49927;48.146;11.420;2022-09-21T11:59:27;1.98;;;1.20;;
63784;SDS011;49927;48.146;11.420;2022-09-21T12:02:15;2.05;;;0.90;;
63784;SDS011;49927;48.146;11.420;2022-09-21T12:04:48;2.05;;;0.80;;
63784;SDS011;49927;48.146;11.420;2022-09-21T12:07:32;2.58;;;0.80;;
63784;SDS011;49927;48.146;11.420;2022-09-21T12:10:09;1.42;;;0.88;;
63784;SDS011;49927;48.146;11.420;2022-09-21T12:12:40;0.77;;;0.60;;
63784;SDS011;49927;48.146;11.420;2022-09-21T12:15:12;4.93;;;1.08;;
63784;SDS011;49927;48.146;11.420;2022-09-21T12:17:45;2.38;;;1.05;;
63784;SDS011;49927;48.146;11.420;2022-09-21T12:20:15;0.82;;;0.68;;
63784;SDS011;49927;48.146;11.420;2022-09-21T12:22:46;1.92;;;1.08;;
63784;SDS011;49927;48.146;11.420;2022-09-21T12:25:14;0.82;;;0.60;;
63784;SDS011;49927;48.146;11.420;2022-09-21T12:27:42;1.60;;;0.80;;
63784;SDS011;49927;48.146;11.420;2022-09-21T12:30:13;2.83;;;0.70;;
63784;SDS011;49927;48.146;11.420;2022-09-21T12:32:43;2.80;;;1.00;;
63784;SDS011;49927;48.146;11.420;2022-09-21T12:35:14;1.45;;;0.90;;
63784;SDS011;49927;48.146;11.420;2022-09-21T12:37:45;2.60;;;1.17;;
63784;SDS011;49927;48.146;11.420;2022-09-21T12:40:15;2.20;;;0.65;;
63784;SDS011;49927;48.146;11.420;2022-09-21T12:42:43;1.35;;;0.93;;
63784;SDS011;49927;48.146;11.420;2022-09-21T12:45:14;5.72;;;0.80;;
63784;SDS011;49927;48.146;11.420;2022-09-21T12:47:45;1.58;;;0.80;;
63784;SDS011;49927;48.146;11.420;2022-09-21T12:50:17;2.13;;;0.80;;
63784;SDS011;49927;48.146;11.420;2022-09-21T12:52:44;0.63;;;0.60;;
63784;SDS011;49927;48.146;11.420;2022-09-21T12:55:14;1.80;;;0.50;;
63784;SDS011;49927;48.146;11.420;2022-09-21T13:00:24;1.08;;;0.75;;
63784;SDS011;49927;48.146;11.420;2022-09-21T13:02:53;3.30;;;1.25;;
63784;SDS011;49927;48.146;11.420;2022-09-21T13:05:21;2.05;;;1.02;;
63784;SDS011;49927;48.146;11.420;2022-09-21T13:07:57;1.75;;;0.60;;
63784;SDS011;49927;48.146;11.420;2022-09-21T13:10:30;1.75;;;0.70;;
63784;SDS011;49927;48.146;11.420;2022-09-21T13:13:01;2.00;;;0.60;;
63784;SDS011;49927;48.146;11.420;2022-09-21T13:15:29;0.90;;;0.60;;
63784;SDS011;49927;48.146;11.420;2022-09-21T13:17:56;2.38;;;0.52;;
63784;SDS011;49927;48.146;11.420;2022-09-21T13:20:25;0.60;;;0.60;;
63784;SDS011;49927;48.146;11.420;2022-09-21T13:22:56;2.58;;;0.32;;
63784;SDS011;49927;48.146;11.420;2022-09-21T13:25:23;3.78;;;0.70;;
63784;SDS011;49927;48.146;11.420;2022-09-21T13:27:56;3.22;;;0.50;;
63784;SDS011;49927;48.146;11.420;2022-09-21T13:30:32;3.72;;;0.85;;
63784;SDS011;49927;48.146;11.420;2022-09-21T13:33:00;1.27;;;0.57;;
63784;SDS011;49927;48.146;11.420;2022-09-21T13:38:25;1.00;;;0.70;;
63784;SDS011;49927;48.146;11.420;2022-09-21T13:40:56;2.08;;;0.80;;
63784;SDS011;49927;48.146;11.420;2022-09-21T13:43:23;1.15;;;0.60;;
63784;SDS011;49927;48.146;11.420;2022-09-21T13:46:11;0.82;;;0.30;;
63784;SDS011;49927;48.146;11.420;2022-09-21T13:49:33;0.40;;;0.40;;
63784;SDS011;49927;48.146;11.420;2022-09-21T13:52:04;1.25;;;0.70;;
63784;SDS011;49927;48.146;11.420;2022-09-21T13:54:32;0.50;;;0.50;;
63784;SDS011;49927;48.146;11.420;2022-09-21T13:59:42;2.38;;;0.80;;
63784;SDS011;49927;48.146;11.420;2022-09-21T14:02:20;2.53;;;0.80;;
63784;SDS011;49927;48.146;11.420;2022-09-21T14:04:48;2.97;;;0.68;;
63784;SDS011;49927;48.146;11.420;2022-09-21T14:07:14;2.67;;;1.13;;
63784;SDS011;49927;48.146;11.420;2022-09-21T14:09:41;3.47;;;1.00;;
63784;SDS011;49927;48.146;11.420;2022-09-21T14:12:08;1.60;;;0.70;;
63784;SDS011;49927;48.146;11.420;2022-09-21T14:14:37;1.17;;;0.50;;
63784;SDS011;49927;48.146;11.420;2022-09-21T14:17:03;0.82;;;0.60;;
63784;SDS011;49927;48.146;11.420;2022-09-21T14:22:49;2.63;;;0.70;;
63784;SDS011;49927;48.146;11.420;2022-09-21T14:25:48;0.98;;;0.68;;
63784;SDS011;49927;48.146;11.420;2022-09-21T14:28:15;0.93;;;0.70;;
63784;SDS011;49927;48.146;11.420;2022-09-21T14:30:41;2.17;;;0.60;;
63784;SDS011;49927;48.146;11.420;2022-09-21T14:33:19;0.50;;;0.50;;
63784;SDS011;49927;48.146;11.420;2022-09-21T14:35:48;0.80;;;0.80;;
63784;SDS011;49927;48.146;11.420;2022-09-21T14:38:17;3.20;;;1.02;;
63784;SDS011;49927;48.146;11.420;2022-09-21T14:40:45;1.15;;;0.73;;
63784;SDS011;49927;48.146;11.420;2022-09-21T14:43:12;0.60;;;0.60;;
63784;SDS011;49927;48.146;11.420;2022-09-21T14:45:44;1.23;;;0.85;;
63784;SDS011;49927;48.146;11.420;2022-09-21T14:48:19;1.00;;;0.70;;
63784;SDS011;49927;48.146;11.420;2022-09-21T14:50:53;1.55;;;0.70;;
63784;SDS011;49927;48.146;11.420;2022-09-21T14:53:36;0.60;;;0.57;;
63784;SDS011;49927;48.146;11.420;2022-09-21T14:56:16;2.08;;;1.10;;
63784;SDS011;49927;48.146;11.420;2022-09-21T14:58:56;1.08;;;0.70;;
63784;SDS011;49927;48.146;11.420;2022-09-21T15:01:34;1.00;;;0.60;;
63784;SDS011;49927;48.146;11.420;2022-09-21T15:04:07;0.93;;;0.60;;